Time;durP1;ratioP1;P1;durP2;ratioP2;P2;SDS_P1;SDS_P2;PMS_P1;PMS_P2;Temp;Humidity;BMP_temperature;BMP_pressure;BME280_temperature;BME280_humidity;BME280_pressure;Samples;Min_cycle;Max_cycle;Signal;HPM_P1;HPM_P2
2023/07/22 00:02:17;;;;;;;7.57;6.30;;;13.50;99.90;;;;;;5015977;28;20183;-77
2023/07/22 00:04:43;;;;;;;8.47;6.97;;;13.50;99.90;;;;;;5017448;28;20188;-77
2023/07/22 00:07:09;;;;;;;9.13;6.23;;;13.40;99.90;;;;;;5017319;28;20181;-78
2023/07/22 00:09:35;;;;;;;6.90;6.17;;;13.40;99.90;;;;;;5017039;28;20610;-78
2023/07/22 00:12:00;;;;;;;7.53;6.37;;;13.40;99.90;;;;;;5017045;28;20177;-77
2023/07/22 00:14:26;;;;;;;7.83;6.10;;;13.40;99.90;;;;;;5015847;28;20641;-78
2023/07/22 00:16:51;;;;;;;7.80;5.97;;;13.40;99.90;;;;;;5015301;28;20230;-77
2023/07/22 00:19:17;;;;;;;9.03;6.63;;;13.40;99.90;;;;;;5015671;28;20177;-77
2023/07/22 00:21:42;;;;;;;9.63;5.90;;;13.40;99.90;;;;;;5017148;28;20177;-77
2023/07/22 00:24:08;;;;;;;8.03;6.13;;;13.40;99.90;;;;;;5016984;28;20173;-77
2023/07/22 00:26:34;;;;;;;9.63;6.30;;;13.50;99.90;;;;;;5017130;28;20617;-78
2023/07/22 00:28:59;;;;;;;13.67;6.17;;;13.40;99.90;;;;;;5015959;28;20181;-77
2023/07/22 00:31:24;;;;;;;9.83;6.37;;;13.40;99.90;;;;;;5015694;28;20200;-78
2023/07/22 00:33:50;;;;;;;10.47;6.50;;;13.40;99.90;;;;;;5016011;28;20555;-77
2023/07/22 00:36:15;;;;;;;7.73;5.67;;;13.40;99.90;;;;;;5017046;28;20204;-77
2023/07/22 00:38:41;;;;;;;8.03;6.20;;;13.40;99.90;;;;;;5017114;28;20177;-78
2023/07/22 00:41:07;;;;;;;10.50;6.40;;;13.40;1.00;;;;;;5016428;28;20197;-77
2023/07/22 00:43:32;;;;;;;7.97;6.43;;;13.40;1.00;;;;;;5017357;28;20171;-77
2023/07/22 00:45:58;;;;;;;12.43;6.20;;;13.40;1.00;;;;;;5013540;28;20649;-77
2023/07/22 00:48:24;;;;;;;7.70;6.80;;;13.40;1.00;;;;;;5014863;28;20236;-77
2023/07/22 00:50:50;;;;;;;9.90;5.93;;;13.40;1.00;;;;;;5014651;28;20588;-77
2023/07/22 00:53:16;;;;;;;8.63;6.30;;;13.40;1.00;;;;;;5015139;28;20255;-77
2023/07/22 00:55:42;;;;;;;8.10;6.03;;;13.40;1.00;;;;;;5015199;28;20181;-77
2023/07/22 00:58:07;;;;;;;6.77;5.73;;;13.40;1.00;;;;;;5016485;28;20228;-78
2023/07/22 01:00:33;;;;;;;7.83;6.33;;;13.40;1.00;;;;;;5016009;28;20185;-77
2023/07/22 01:02:59;;;;;;;6.47;5.70;;;13.50;2.00;;;;;;5016005;28;20652;-76
2023/07/22 01:05:27;;;;;;;7.03;5.97;;;13.50;99.90;;;;;;5014514;28;20279;-76
2023/07/22 01:07:53;;;;;;;8.60;5.73;;;13.50;34.70;;;;;;5013476;28;20181;-77
2023/07/22 01:10:19;;;;;;;8.70;5.87;;;13.50;78.60;;;;;;5014714;28;20202;-77
2023/07/22 01:12:45;;;;;;;10.63;6.30;;;13.50;22.30;;;;;;5014161;28;20550;-77
2023/07/22 01:15:11;;;;;;;7.10;5.83;;;13.50;51.60;;;;;;5014889;28;20184;-76
2023/07/22 01:17:38;;;;;;;6.90;5.67;;;13.60;79.20;;;;;;5014948;28;20676;-77
2023/07/22 01:20:05;;;;;;;8.17;6.40;;;13.60;53.10;;;;;;5016073;28;20189;-77
2023/07/22 01:22:32;;;;;;;8.67;6.47;;;13.60;50.00;;;;;;5014667;28;20679;-77
2023/07/22 01:24:58;;;;;;;10.47;6.50;;;13.60;85.70;;;;;;5014653;28;20173;-76
2023/07/22 01:27:24;;;;;;;7.37;6.20;;;13.60;36.20;;;;;;4996063;28;20237;-77
2023/07/22 01:29:53;;;;;;;7.63;5.83;;;13.60;99.90;;;;;;4994856;28;20201;-77
2023/07/22 01:32:19;;;;;;;8.50;6.27;;;13.70;99.90;;;;;;4995113;28;20646;-77
2023/07/22 01:34:45;;;;;;;7.23;6.27;;;13.60;99.90;;;;;;4994965;28;20189;-77
2023/07/22 01:37:11;;;;;;;7.07;6.03;;;13.70;99.90;;;;;;5013281;28;20211;-77
2023/07/22 01:39:37;;;;;;;8.23;6.17;;;13.70;99.90;;;;;;5015540;28;20660;-77
2023/07/22 01:42:02;;;;;;;10.60;7.23;;;13.60;99.90;;;;;;5015341;28;20640;-77
2023/07/22 01:44:28;;;;;;;8.93;6.20;;;13.70;99.90;;;;;;5012137;28;20228;-77
2023/07/22 01:46:54;;;;;;;8.23;6.70;;;13.70;99.90;;;;;;5015818;28;20185;-78
2023/07/22 01:49:19;;;;;;;6.93;6.23;;;13.70;99.90;;;;;;5015157;28;20181;-77
2023/07/22 01:51:45;;;;;;;12.00;6.90;;;13.80;99.90;;;;;;5015675;28;20236;-78
2023/07/22 01:54:12;;;;;;;9.97;6.57;;;13.70;99.90;;;;;;5013670;28;20181;-78
2023/07/22 01:56:38;;;;;;;6.87;6.23;;;13.70;99.90;;;;;;5013736;28;20205;-77
2023/07/22 01:59:05;;;;;;;10.47;6.33;;;13.70;99.90;;;;;;5015784;28;20200;-77
2023/07/22 02:01:31;;;;;;;7.67;6.50;;;13.70;99.90;;;;;;5014883;28;20189;-77
2023/07/22 02:03:56;;;;;;;8.70;6.67;;;13.70;99.90;;;;;;5014184;28;20172;-77
2023/07/22 02:06:22;;;;;;;10.73;7.17;;;13.70;99.90;;;;;;5014559;28;20208;-76
2023/07/22 02:08:48;;;;;;;10.33;6.67;;;13.70;99.90;;;;;;5015645;28;20255;-78
2023/07/22 02:11:13;;;;;;;8.63;6.70;;;13.70;99.90;;;;;;5014697;28;20188;-77
2023/07/22 02:13:39;;;;;;;9.43;6.90;;;13.70;99.90;;;;;;5013858;28;20169;-77
2023/07/22 02:16:04;;;;;;;7.47;6.53;;;13.70;99.90;;;;;;5012811;28;20268;-78
2023/07/22 02:18:30;;;;;;;8.30;6.77;;;13.70;99.90;;;;;;5015403;28;20252;-78
2023/07/22 02:20:56;;;;;;;10.00;6.93;;;13.70;99.90;;;;;;5015708;28;20192;-78
2023/07/22 02:23:23;;;;;;;8.97;6.80;;;13.70;99.90;;;;;;5013778;28;20173;-76
2023/07/22 02:25:53;;;;;;;7.20;5.90;;;13.80;99.90;;;;;;5013713;28;20185;-78
2023/07/22 02:28:21;;;;;;;8.13;6.20;;;13.80;99.90;;;;;;5015214;28;20203;-77
2023/07/22 02:30:52;;;;;;;12.83;7.13;;;13.70;99.90;;;;;;5013001;28;20376;-77
2023/07/22 02:33:18;;;;;;;10.53;6.40;;;13.70;99.90;;;;;;5015055;28;20227;-78
2023/07/22 02:35:44;;;;;;;9.07;6.37;;;13.60;99.90;;;;;;5012528;28;20219;-78
2023/07/22 02:38:10;;;;;;;7.83;6.27;;;13.70;99.90;;;;;;5013528;28;20288;-77
2023/07/22 02:40:36;;;;;;;12.70;7.67;;;13.70;99.90;;;;;;5013308;28;20192;-78
2023/07/22 02:43:03;;;;;;;10.47;6.70;;;13.70;99.90;;;;;;5014482;28;20173;-78
2023/07/22 02:45:28;;;;;;;9.60;7.00;;;13.70;99.90;;;;;;5012613;28;20181;-76
2023/07/22 02:47:54;;;;;;;8.63;6.43;;;13.70;99.90;;;;;;5013775;28;20177;-77
2023/07/22 02:50:19;;;;;;;8.97;7.13;;;13.70;99.90;;;;;;5013897;28;20207;-78
2023/07/22 02:52:45;;;;;;;11.87;7.30;;;13.70;99.90;;;;;;5019184;28;20256;-77
2023/07/22 02:55:13;;;;;;;9.90;7.07;;;13.70;99.90;;;;;;5017228;28;20271;-77
2023/07/22 02:57:40;;;;;;;8.67;6.47;;;13.60;99.90;;;;;;5019505;28;20219;-77
2023/07/22 03:00:07;;;;;;;9.87;7.00;;;13.60;99.90;;;;;;5020235;28;20216;-77
2023/07/22 03:02:37;;;;;;;8.23;6.63;;;13.60;99.90;;;;;;5019667;28;20172;-77
2023/07/22 03:05:09;;;;;;;7.90;5.93;;;13.60;99.90;;;;;;5019556;28;20192;-77
2023/07/22 03:07:36;;;;;;;7.67;6.00;;;13.60;1.00;;;;;;5019391;28;20197;-78
2023/07/22 03:10:02;;;;;;;7.67;6.07;;;13.60;1.00;;;;;;5019694;28;20296;-77
2023/07/22 03:12:27;;;;;;;8.37;5.97;;;13.60;1.00;;;;;;5020433;28;20184;-77
2023/07/22 03:14:53;;;;;;;6.97;5.83;;;13.60;1.00;;;;;;5017549;28;20185;-77
2023/07/22 03:17:19;;;;;;;9.93;6.83;;;13.60;1.00;;;;;;5019300;28;20197;-77
2023/07/22 03:19:45;;;;;;;10.10;7.40;;;13.60;1.00;;;;;;5019930;28;20244;-77
2023/07/22 03:22:18;;;;;;;10.20;6.77;;;13.60;1.00;;;;;;5019939;28;20181;-77
2023/07/22 03:24:45;;;;;;;9.40;7.10;;;13.50;1.00;;;;;;5016022;28;20184;-77
2023/07/22 03:27:11;;;;;;;10.77;7.27;;;13.60;1.00;;;;;;5017659;28;20177;-77
2023/07/22 03:29:38;;;;;;;9.47;7.37;;;13.60;1.00;;;;;;5017689;28;20197;-77
2023/07/22 03:32:04;;;;;;;11.43;7.57;;;13.60;1.00;;;;;;5016576;28;20657;-76
2023/07/22 03:34:30;;;;;;;11.07;7.40;;;13.60;1.00;;;;;;5016795;28;20200;-77
2023/07/22 03:36:56;;;;;;;9.70;6.77;;;13.60;1.00;;;;;;5017730;28;20189;-77
2023/07/22 03:39:22;;;;;;;11.10;6.80;;;13.60;1.00;;;;;;5016342;28;20323;-77
2023/07/22 03:41:48;;;;;;;12.07;6.67;;;13.60;99.90;;;;;;5017915;28;20188;-78
2023/07/22 03:44:14;;;;;;;12.57;7.30;;;13.60;99.90;;;;;;5015785;28;20251;-77
2023/07/22 03:46:39;;;;;;;10.33;6.53;;;13.60;99.90;;;;;;5017704;28;20169;-78
2023/07/22 03:49:05;;;;;;;10.67;6.77;;;13.60;99.90;;;;;;5016897;28;20188;-77
2023/07/22 03:51:31;;;;;;;8.13;6.47;;;13.60;99.90;;;;;;5017110;28;20197;-77
2023/07/22 03:53:57;;;;;;;10.53;6.97;;;13.70;99.90;;;;;;5014968;28;20249;-77
2023/07/22 03:56:23;;;;;;;9.20;6.40;;;13.70;99.90;;;;;;5017090;28;20254;-77
2023/07/22 03:58:49;;;;;;;8.20;6.83;;;13.70;27.10;;;;;;5016787;28;20197;-77
2023/07/22 04:01:15;;;;;;;6.83;5.87;;;13.70;1.00;;;;;;5016842;28;20193;-77
2023/07/22 04:03:41;;;;;;;12.30;6.43;;;13.80;1.00;;;;;;5017022;28;20177;-77
2023/07/22 04:06:06;;;;;;;12.20;6.30;;;13.80;99.90;;;;;;5014184;28;20180;-77
2023/07/22 04:08:32;;;;;;;9.13;6.13;;;13.90;99.90;;;;;;5017154;28;20232;-78
2023/07/22 04:10:58;;;;;;;8.83;6.63;;;13.90;99.90;;;;;;5016702;28;20207;-77
2023/07/22 04:13:25;;;;;;;10.30;6.73;;;14.00;99.90;;;;;;5016894;28;20172;-77
2023/07/22 04:15:51;;;;;;;8.83;6.20;;;14.00;99.90;;;;;;5014796;28;20503;-77
2023/07/22 04:18:18;;;;;;;8.20;5.87;;;14.00;99.90;;;;;;5015600;28;20303;-77
2023/07/22 04:20:43;;;;;;;10.03;5.93;;;14.00;99.90;;;;;;5016670;28;20268;-77
2023/07/22 04:23:09;;;;;;;9.17;6.17;;;14.10;99.90;;;;;;5017000;28;20250;-77
2023/07/22 04:25:45;;;;;;;7.80;6.07;;;14.10;99.90;;;;;;5014352;28;20185;-77
2023/07/22 04:28:10;;;;;;;7.73;6.00;;;14.10;99.90;;;;;;5015292;28;20672;-77
2023/07/22 04:30:37;;;;;;;7.00;5.57;;;14.10;87.00;;;;;;5016538;28;20201;-77
2023/07/22 04:33:05;;;;;;;11.43;6.73;;;14.10;1.00;;;;;;5016702;28;20649;-77
2023/07/22 04:35:32;;;;;;;10.13;6.30;;;14.20;1.00;;;;;;5013927;28;20204;-77
2023/07/22 04:37:59;;;;;;;9.67;6.00;;;14.00;1.00;;;;;;5015632;28;20220;-77
2023/07/22 04:40:25;;;;;;;8.90;6.37;;;14.20;1.00;;;;;;5016380;28;20275;-77
2023/07/22 04:42:51;;;;;;;6.50;5.83;;;14.20;1.00;;;;;;5016473;28;20173;-77
2023/07/22 04:45:18;;;;;;;7.83;6.07;;;14.30;99.90;;;;;;5014187;28;20185;-78
2023/07/22 04:47:46;;;;;;;9.00;5.97;;;14.30;99.90;;;;;;5013923;28;20188;-77
2023/07/22 04:50:12;;;;;;;7.93;5.80;;;14.30;99.90;;;;;;5016428;28;20197;-78
2023/07/22 04:52:38;;;;;;;6.87;5.30;;;14.30;1.00;;;;;;5015508;28;20185;-77
2023/07/22 04:55:08;;;;;;;9.47;6.07;;;14.40;1.00;;;;;;5015454;28;20250;-78
2023/07/22 04:57:35;;;;;;;7.00;5.23;;;14.40;99.90;;;;;;5014920;28;20205;-77
2023/07/22 05:00:03;;;;;;;7.63;5.63;;;14.40;99.90;;;;;;5016253;28;20572;-78
2023/07/22 05:02:30;;;;;;;8.20;5.50;;;14.40;1.00;;;;;;5014640;28;20173;-77
2023/07/22 05:04:56;;;;;;;8.83;5.40;;;14.50;1.00;;;;;;5015711;28;20181;-78
2023/07/22 05:07:21;;;;;;;5.87;5.27;;;14.50;99.90;;;;;;5015314;28;20191;-77
2023/07/22 05:09:47;;;;;;;9.60;5.40;;;14.50;99.90;;;;;;5015632;28;20287;-77
2023/07/22 05:12:13;;;;;;;9.50;5.60;;;14.50;99.90;;;;;;5015593;28;20236;-77
2023/07/22 05:14:38;;;;;;;8.47;5.87;;;14.50;99.90;;;;;;5013783;28;20242;-77
2023/07/22 05:17:04;;;;;;;7.50;5.60;;;14.50;99.90;;;;;;5015583;28;20206;-77
2023/07/22 05:19:29;;;;;;;7.43;5.20;;;14.50;99.90;;;;;;5014381;28;20200;-77
2023/07/22 05:21:55;;;;;;;8.50;5.40;;;14.60;99.90;;;;;;5014975;28;20633;-77
2023/07/22 05:24:21;;;;;;;6.20;5.20;;;14.50;99.90;;;;;;5015018;28;20169;-78
2023/07/22 05:26:46;;;;;;;9.07;6.23;;;14.50;42.50;;;;;;5016838;28;20177;-78
2023/07/22 05:29:12;;;;;;;6.87;4.97;;;14.60;17.60;;;;;;5014710;28;20180;-78
2023/07/22 05:31:38;;;;;;;6.70;5.40;;;14.50;19.60;;;;;;5014895;28;20181;-78
2023/07/22 05:34:03;;;;;;;6.93;5.60;;;14.50;39.80;;;;;;5015969;28;20553;-78
2023/07/22 05:36:29;;;;;;;9.30;5.77;;;14.50;99.90;;;;;;5014172;28;20192;-78
2023/07/22 05:38:55;;;;;;;7.93;5.97;;;14.50;99.90;;;;;;5015654;28;20180;-77
2023/07/22 05:41:21;;;;;;;7.97;5.80;;;14.50;99.90;;;;;;5015122;28;20282;-78
2023/07/22 05:43:46;;;;;;;7.20;5.93;;;14.60;99.90;;;;;;5015351;28;20660;-78
2023/07/22 05:46:12;;;;;;;6.67;5.20;;;14.60;99.90;;;;;;5016689;28;20203;-78
2023/07/22 05:48:38;;;;;;;7.23;5.70;;;14.70;1.00;;;;;;5016606;28;20199;-78
2023/07/22 05:51:03;;;;;;;6.70;5.70;;;14.70;1.00;;;;;;5015908;28;20211;-78
2023/07/22 05:53:29;;;;;;;7.60;6.00;;;14.70;99.90;;;;;;5017110;28;20256;-77
2023/07/22 05:55:54;;;;;;;8.53;6.17;;;14.80;75.70;;;;;;5016354;28;20176;-77
2023/07/22 05:58:20;;;;;;;8.63;6.40;;;14.80;99.90;;;;;;5014495;28;20216;-78
2023/07/22 06:00:48;;;;;;;10.63;6.07;;;14.90;99.90;;;;;;5015370;28;20641;-77
2023/07/22 06:03:14;;;;;;;8.03;5.83;;;14.90;1.00;;;;;;5015927;28;20177;-78
2023/07/22 06:05:40;;;;;;;10.80;6.40;;;14.80;1.00;;;;;;5015914;28;20680;-78
2023/07/22 06:08:05;;;;;;;7.80;5.47;;;15.00;99.90;;;;;;5015068;28;20220;-78
2023/07/22 06:10:32;;;;;;;7.23;4.80;;;15.00;99.90;;;;;;5015856;28;20576;-77
2023/07/22 06:12:57;;;;;;;7.70;5.23;;;15.10;99.90;;;;;;5015514;28;20177;-78
2023/07/22 06:15:23;;;;;;;10.70;5.30;;;15.10;1.00;;;;;;5015607;28;20482;-78
2023/07/22 06:17:48;;;;;;;8.53;5.50;;;15.20;99.90;;;;;;5015703;28;20279;-77
2023/07/22 06:20:14;;;;;;;7.43;5.40;;;15.20;99.90;;;;;;5015137;28;20307;-78
2023/07/22 06:22:40;;;;;;;7.40;5.40;;;15.40;23.00;;;;;;5014633;28;20228;-78
2023/07/22 06:25:06;;;;;;;14.23;6.03;;;15.30;1.00;;;;;;5014525;28;20267;-78
2023/07/22 06:27:32;;;;;;;9.07;6.10;;;15.50;1.00;;;;;;5015868;28;20188;-78
2023/07/22 06:29:58;;;;;;;9.43;6.03;;;15.60;99.90;;;;;;5014367;28;20201;-77
2023/07/22 06:32:24;;;;;;;7.17;5.23;;;15.70;99.90;;;;;;5013504;28;20173;-77
2023/07/22 06:34:49;;;;;;;7.43;5.43;;;15.80;99.90;;;;;;5014990;28;20355;-78
2023/07/22 06:37:15;;;;;;;7.40;5.07;;;15.90;90.60;;;;;;5016353;28;20268;-78
2023/07/22 06:39:40;;;;;;;10.77;5.40;;;16.00;99.90;;;;;;5013627;28;20267;-78
2023/07/22 06:42:06;;;;;;;9.13;6.07;;;16.10;12.00;;;;;;5014300;28;20177;-78
2023/07/22 06:44:32;;;;;;;9.33;6.07;;;16.20;18.60;;;;;;5015160;28;20560;-78
2023/07/22 06:46:57;;;;;;;13.00;5.83;;;16.20;1.00;;;;;;5013888;28;20185;-76
2023/07/22 06:49:23;;;;;;;9.70;5.90;;;16.20;23.80;;;;;;5012589;28;20645;-78
2023/07/22 06:51:48;;;;;;;8.90;6.07;;;16.30;99.90;;;;;;5014208;28;20172;-77
2023/07/22 06:54:14;;;;;;;8.13;5.73;;;16.30;1.00;;;;;;5012917;28;20185;-78
2023/07/22 06:56:41;;;;;;;7.73;5.50;;;16.30;1.00;;;;;;5014095;28;20224;-77
2023/07/22 06:59:06;;;;;;;8.47;6.20;;;16.30;1.00;;;;;;5013836;28;20538;-77
2023/07/22 07:01:32;;;;;;;10.53;5.87;;;16.30;1.00;;;;;;5013268;28;20192;-78
2023/07/22 07:03:57;;;;;;;9.67;5.90;;;16.30;1.00;;;;;;5013408;28;20177;-78
2023/07/22 07:06:23;;;;;;;10.33;6.27;;;16.40;1.00;;;;;;5013115;28;20209;-77
2023/07/22 07:08:49;;;;;;;7.10;5.57;;;16.40;1.00;;;;;;5013785;28;20188;-77
2023/07/22 07:11:14;;;;;;;10.00;6.50;;;16.40;23.30;;;;;;5012049;28;20208;-78
2023/07/22 07:13:40;;;;;;;11.60;6.20;;;16.40;38.30;;;;;;5013863;28;20173;-77
2023/07/22 07:16:26;;;;;;;13.50;6.43;;;16.50;90.20;;;;;;5011810;28;20199;-77
2023/07/22 07:18:52;;;;;;;11.13;6.07;;;16.50;84.90;;;;;;5014177;28;20243;-77
2023/07/22 07:21:18;;;;;;;11.10;5.10;;;16.50;1.00;;;;;;5014081;28;20289;-78
2023/07/22 07:23:44;;;;;;;11.30;6.37;;;16.60;1.00;;;;;;5013813;28;20205;-78
2023/07/22 07:26:10;;;;;;;8.83;6.13;;;16.70;99.90;;;;;;5013458;28;20227;-78
2023/07/22 07:28:36;;;;;;;8.00;6.20;;;16.70;1.00;;;;;;5013628;28;20180;-79
2023/07/22 07:31:01;;;;;;;9.03;5.83;;;16.80;1.00;;;;;;5017844;28;20196;-79
2023/07/22 07:33:27;;;;;;;11.77;6.30;;;16.80;1.00;;;;;;5021268;28;20180;-78
2023/07/22 07:35:53;;;;;;;11.03;6.33;;;16.90;1.00;;;;;;5018245;28;20193;-79
2023/07/22 07:38:18;;;;;;;6.67;5.50;;;17.00;1.00;;;;;;5023330;28;20255;-78
2023/07/22 07:40:44;;;;;;;10.17;6.07;;;17.10;1.00;;;;;;5022868;28;20711;-79
2023/07/22 07:43:09;;;;;;;7.40;5.93;;;17.10;1.00;;;;;;5023402;28;20169;-78
2023/07/22 07:45:39;;;;;;;8.20;6.10;;;17.20;1.00;;;;;;5023170;28;20192;-78
2023/07/22 07:48:05;;;;;;;12.40;6.67;;;17.30;1.00;;;;;;5025344;28;20176;-79
2023/07/22 07:50:32;;;;;;;12.67;6.60;;;17.30;1.00;;;;;;5015877;28;20309;-79
2023/07/22 07:52:59;;;;;;;9.50;5.97;;;17.30;99.90;;;;;;5017649;28;20212;-79
2023/07/22 07:55:25;;;;;;;9.97;6.10;;;17.40;99.90;;;;;;5016255;28;20177;-79
2023/07/22 07:57:50;;;;;;;12.37;6.17;;;17.40;99.90;;;;;;5016297;28;20622;-78
2023/07/22 08:00:16;;;;;;;9.73;6.80;;;17.40;99.90;;;;;;5016415;28;20668;-78
2023/07/22 08:02:42;;;;;;;8.27;5.60;;;17.40;99.90;;;;;;5015267;28;20235;-77
2023/07/22 08:05:08;;;;;;;8.70;5.83;;;17.50;99.90;;;;;;5015026;28;20203;-78
2023/07/22 08:07:33;;;;;;;9.70;6.23;;;17.60;99.90;;;;;;5022393;28;20173;-77
2023/07/22 08:10:00;;;;;;;9.87;6.30;;;17.60;99.90;;;;;;5018436;28;20200;-78
2023/07/22 08:12:26;;;;;;;14.27;6.53;;;17.70;99.90;;;;;;5016543;28;20584;-79
2023/07/22 08:14:53;;;;;;;9.73;5.90;;;17.70;99.90;;;;;;5014760;28;20185;-78
2023/07/22 08:17:18;;;;;;;8.43;6.00;;;17.80;99.90;;;;;;5016110;28;20251;-78
2023/07/22 08:19:44;;;;;;;12.93;6.67;;;17.80;99.10;;;;;;5015854;28;20197;-78
2023/07/22 08:22:09;;;;;;;10.60;6.47;;;17.90;99.90;;;;;;5015310;28;20177;-78
2023/07/22 08:24:35;;;;;;;13.37;6.87;;;18.00;99.90;;;;;;5015003;28;20177;-78
2023/07/22 08:27:00;;;;;;;9.20;5.97;;;18.00;1.00;;;;;;5014935;28;20699;-78
2023/07/22 08:29:26;;;;;;;8.93;6.40;;;18.10;1.00;;;;;;5018491;28;20207;-78
2023/07/22 08:31:52;;;;;;;11.13;6.50;;;18.20;33.10;;;;;;5016696;28;20199;-78
2023/07/22 08:34:17;;;;;;;11.60;6.63;;;18.30;37.50;;;;;;5014608;28;20189;-78
2023/07/22 08:36:43;;;;;;;11.30;6.47;;;18.40;14.00;;;;;;5016336;28;20196;-78
2023/07/22 08:39:09;;;;;;;8.73;6.13;;;18.40;1.00;;;;;;5015637;28;20231;-77
2023/07/22 08:41:35;;;;;;;8.63;5.57;;;18.50;1.00;;;;;;5014505;28;20597;-78
2023/07/22 08:44:04;;;;;;;8.40;5.97;;;18.50;1.00;;;;;;5014514;28;20173;-78
2023/07/22 08:46:32;;;;;;;7.60;5.70;;;18.60;1.00;;;;;;5014391;28;20177;-77
2023/07/22 08:49:00;;;;;;;6.97;5.63;;;18.60;1.00;;;;;;5028242;28;20240;-78
2023/07/22 08:51:28;;;;;;;7.07;5.87;;;18.70;1.00;;;;;;5015251;28;20185;-78
2023/07/22 08:53:56;;;;;;;7.23;5.90;;;18.60;99.90;;;;;;5014636;28;20653;-78
2023/07/22 08:56:23;;;;;;;7.00;5.80;;;18.70;1.00;;;;;;5014890;28;20238;-79
2023/07/22 08:58:50;;;;;;;7.30;5.03;;;18.80;99.90;;;;;;5016279;28;20173;-79
2023/07/22 09:01:16;;;;;;;7.97;5.07;;;18.90;99.90;;;;;;5015919;28;20667;-79
2023/07/22 09:03:42;;;;;;;6.93;4.80;;;19.00;1.00;;;;;;5014851;28;20288;-78
2023/07/22 09:06:07;;;;;;;10.63;5.20;;;19.10;99.90;;;;;;5015653;28;20203;-79
2023/07/22 09:08:34;;;;;;;7.27;4.77;;;19.30;99.90;;;;;;5014688;28;20184;-79
2023/07/22 09:11:00;;;;;;;7.27;4.87;;;19.40;99.90;;;;;;5014880;28;20201;-79
2023/07/22 09:13:26;;;;;;;7.70;4.97;;;19.50;99.90;;;;;;5014894;28;20176;-79
2023/07/22 09:15:52;;;;;;;5.70;4.90;;;19.60;99.90;;;;;;5014610;28;20718;-78
2023/07/22 09:18:18;;;;;;;9.17;4.77;;;19.70;87.20;;;;;;5015861;28;20206;-78
2023/07/22 09:20:43;;;;;;;8.03;4.97;;;19.50;99.90;;;;;;5014729;28;20279;-78
2023/07/22 09:23:09;;;;;;;7.03;4.03;;;19.60;99.90;;;;;;5015717;28;20165;-79
2023/07/22 09:25:38;;;;;;;5.40;4.90;;;19.50;99.90;;;;;;5015445;28;20169;-78
2023/07/22 09:28:04;;;;;;;8.27;4.10;;;19.70;99.90;;;;;;5015605;28;20204;-78
2023/07/22 09:30:33;;;;;;;5.87;4.27;;;19.70;99.90;;;;;;5016393;28;20189;-79
2023/07/22 09:33:27;;;;;;;6.87;4.53;;;19.70;99.90;;;;;;5015624;28;20192;-78
2023/07/22 09:35:54;;;;;;;10.30;4.50;;;19.80;99.90;;;;;;5016155;28;20275;-79
2023/07/22 09:38:24;;;;;;;5.10;3.87;;;19.70;82.60;;;;;;5015508;28;20262;-79
2023/07/22 09:40:50;;;;;;;6.53;4.03;;;19.70;99.90;;;;;;5016820;28;20224;-79
2023/07/22 09:43:16;;;;;;;4.00;3.43;;;19.80;99.90;;;;;;5016028;28;20235;-78
2023/07/22 09:45:41;;;;;;;4.60;3.07;;;19.80;33.20;;;;;;5016585;28;20180;-79
2023/07/22 09:48:09;;;;;;;4.73;3.37;;;19.90;95.80;;;;;;5021272;28;20188;-79
2023/07/22 09:50:36;;;;;;;5.17;3.27;;;19.90;71.50;;;;;;5024124;28;20212;-79
2023/07/22 09:53:03;;;;;;;4.50;3.17;;;19.80;67.40;;;;;;5025675;28;20177;-79
2023/07/22 09:55:30;;;;;;;4.00;2.93;;;20.00;47.80;;;;;;5026240;28;20173;-79
2023/07/22 09:57:58;;;;;;;7.10;3.07;;;20.10;64.00;;;;;;5022905;28;20196;-78
2023/07/22 10:00:26;;;;;;;5.63;2.80;;;20.20;1.00;;;;;;5023346;28;20197;-78
2023/07/22 10:02:55;;;;;;;4.57;3.23;;;20.30;1.00;;;;;;5019670;28;20649;-78
2023/07/22 10:05:22;;;;;;;5.10;3.27;;;20.30;35.10;;;;;;5022553;28;20195;-78
2023/07/22 10:07:54;;;;;;;5.07;2.83;;;20.40;67.50;;;;;;5022846;28;20199;-78
2023/07/22 10:10:40;;;;;;;4.43;2.77;;;20.50;1.00;;;;;;5023617;28;20203;-78
2023/07/22 10:13:06;;;;;;;4.73;2.53;;;20.60;5.70;;;;;;5023163;28;20271;-79
2023/07/22 10:15:34;;;;;;;5.10;3.07;;;20.70;3.30;;;;;;5021839;28;20184;-79
2023/07/22 10:18:00;;;;;;;5.03;2.87;;;20.70;1.00;;;;;;5022817;28;20680;-78
2023/07/22 10:20:26;;;;;;;4.07;2.27;;;20.70;1.00;;;;;;5029430;28;20188;-79
2023/07/22 10:22:51;;;;;;;3.33;2.50;;;20.80;1.00;;;;;;5024359;28;20295;-81
2023/07/22 10:25:22;;;;;;;5.30;2.30;;;20.80;1.00;;;;;;5018385;28;20544;-78
2023/07/22 10:27:49;;;;;;;4.10;2.83;;;20.90;1.00;;;;;;5018036;28;20192;-78
2023/07/22 10:30:16;;;;;;;3.50;2.60;;;21.00;1.00;;;;;;5018631;28;20197;-78
2023/07/22 10:32:52;;;;;;;2.30;2.10;;;21.00;1.00;;;;;;5018068;28;20286;-78
2023/07/22 10:35:31;;;;;;;4.37;2.80;;;21.00;1.00;;;;;;5018901;28;20188;-78
2023/07/22 10:38:10;;;;;;;3.23;2.40;;;21.00;1.00;;;;;;5017103;28;20295;-78
2023/07/22 10:40:52;;;;;;;5.63;2.47;;;21.00;1.00;;;;;;5017728;28;20681;-78
2023/07/22 10:43:36;;;;;;;3.03;2.20;;;21.30;1.00;;;;;;5018386;28;20229;-78
2023/07/22 10:46:12;;;;;;;3.77;2.33;;;21.30;1.00;;;;;;5019078;28;20157;-78
2023/07/22 10:48:41;;;;;;;5.43;2.17;;;21.30;1.00;;;;;;5018696;28;20218;-79
2023/07/22 10:51:16;;;;;;;3.13;2.27;;;21.40;1.00;;;;;;5020327;28;20294;-78
2023/07/22 10:53:51;;;;;;;3.17;2.10;;;21.50;1.00;;;;;;5019124;28;20162;-78
2023/07/22 10:56:23;;;;;;;2.50;1.97;;;21.50;1.00;;;;;;5017504;28;20276;-78
2023/07/22 10:58:52;;;;;;;3.03;2.20;;;21.60;1.00;;;;;;5019075;28;20196;-78
2023/07/22 11:01:29;;;;;;;2.77;1.90;;;21.60;1.00;;;;;;5018293;28;20200;-78
2023/07/22 11:04:13;;;;;;;5.40;2.10;;;21.70;1.00;;;;;;5020516;28;20165;-77
2023/07/22 11:06:52;;;;;;;6.13;2.17;;;21.70;1.00;;;;;;5018384;28;20239;-78
2023/07/22 11:09:29;;;;;;;1.90;1.60;;;21.90;1.00;;;;;;5018561;28;20571;-78
2023/07/22 11:12:12;;;;;;;3.50;1.80;;;21.90;1.00;;;;;;5018452;28;20192;-78
2023/07/22 11:14:39;;;;;;;3.97;2.00;;;22.10;1.00;;;;;;5022282;28;20613;-78
2023/07/22 11:17:08;;;;;;;2.97;2.17;;;22.20;1.00;;;;;;5022308;28;20284;-78
2023/07/22 11:19:34;;;;;;;4.00;1.90;;;22.30;1.00;;;;;;5021745;28;20189;-77
2023/07/22 11:22:00;;;;;;;1.90;1.57;;;22.20;1.00;;;;;;5021641;28;20573;-77
2023/07/22 11:24:26;;;;;;;2.50;1.73;;;22.10;1.00;;;;;;5019802;28;20169;-78
2023/07/22 11:26:52;;;;;;;7.03;1.60;;;22.10;1.00;;;;;;5016706;28;20234;-77
2023/07/22 11:29:18;;;;;;;3.00;1.70;;;22.00;1.00;;;;;;5017035;28;20177;-78
2023/07/22 11:31:46;;;;;;;3.50;1.77;;;22.20;1.00;;;;;;5019271;28;20177;-79
2023/07/22 11:34:17;;;;;;;9.53;1.80;;;22.20;1.00;;;;;;5019439;28;20223;-79
2023/07/22 11:36:43;;;;;;;3.83;1.97;;;22.30;1.00;;;;;;5028344;28;20179;-79
2023/07/22 11:39:12;;;;;;;2.03;1.60;;;22.40;1.00;;;;;;5018344;28;20203;-78
2023/07/22 11:41:38;;;;;;;3.77;2.00;;;22.50;1.00;;;;;;5019412;28;20192;-78
2023/07/22 11:44:13;;;;;;;2.20;1.47;;;22.50;1.00;;;;;;5020427;28;20168;-78
2023/07/22 11:46:54;;;;;;;3.57;1.70;;;22.60;1.00;;;;;;5020699;28;20152;-79
2023/07/22 11:49:39;;;;;;;4.57;2.10;;;22.60;1.00;;;;;;5017394;28;20184;-78
2023/07/22 11:52:17;;;;;;;4.03;1.93;;;22.50;1.00;;;;;;5018061;28;20205;-78
2023/07/22 11:54:44;;;;;;;1.87;1.30;;;22.50;1.00;;;;;;5017351;28;20540;-78
2023/07/22 11:57:11;;;;;;;2.67;1.67;;;22.50;1.00;;;;;;5018610;28;20528;-78
2023/07/22 11:59:44;;;;;;;1.90;1.40;;;22.60;1.00;;;;;;5021914;28;20193;-78
2023/07/22 12:02:18;;;;;;;2.17;1.50;;;22.50;1.00;;;;;;5018126;28;20161;-79
2023/07/22 12:04:52;;;;;;;2.13;1.70;;;22.50;1.00;;;;;;5019021;28;20684;-78
2023/07/22 12:07:28;;;;;;;5.90;1.83;;;22.70;1.00;;;;;;5018759;28;20157;-79
2023/07/22 12:09:56;;;;;;;2.47;1.80;;;22.50;1.00;;;;;;5018507;28;20259;-78
2023/07/22 12:12:32;;;;;;;4.37;1.87;;;22.60;1.00;;;;;;5018416;28;20185;-78
2023/07/22 12:15:08;;;;;;;3.87;2.03;;;22.50;1.00;;;;;;5016487;28;20176;-77
2023/07/22 12:17:58;;;;;;;2.90;2.17;;;22.60;1.00;;;;;;5018104;28;20299;-78
2023/07/22 12:20:29;;;;;;;2.73;2.30;;;22.50;1.00;;;;;;5018502;28;20213;-77
2023/07/22 12:22:55;;;;;;;3.53;2.30;;;22.40;1.00;;;;;;5016760;28;20683;-78
2023/07/22 12:25:21;;;;;;;3.50;2.40;;;22.40;1.00;;;;;;5018089;28;20185;-79
2023/07/22 12:27:46;;;;;;;2.87;2.40;;;22.40;1.00;;;;;;5018150;28;20569;-78
2023/07/22 12:30:12;;;;;;;3.37;2.43;;;22.60;1.00;;;;;;5017908;28;20196;-79
2023/07/22 12:32:38;;;;;;;3.00;2.10;;;22.70;1.00;;;;;;5025391;28;20181;-78
2023/07/22 12:35:05;;;;;;;5.60;2.77;;;22.80;1.00;;;;;;5028717;28;20197;-78
2023/07/22 12:37:30;;;;;;;2.87;2.50;;;22.80;1.00;;;;;;5017518;28;20205;-78
2023/07/22 12:39:56;;;;;;;3.97;2.90;;;22.70;1.00;;;;;;5017808;28;20191;-78
2023/07/22 12:42:22;;;;;;;4.30;2.47;;;22.70;1.00;;;;;;5017981;28;20169;-79
2023/07/22 12:44:47;;;;;;;6.03;2.27;;;22.70;1.00;;;;;;5018999;28;20227;-78
2023/07/22 12:47:13;;;;;;;2.90;2.17;;;22.80;1.00;;;;;;5017690;28;20204;-79
2023/07/22 12:49:38;;;;;;;3.20;2.10;;;22.80;1.00;;;;;;5018321;28;20208;-79
2023/07/22 12:52:08;;;;;;;3.67;2.20;;;22.90;1.00;;;;;;5018131;28;20180;-79